Time;durP1;ratioP1;P1;durP2;ratioP2;P2;SDS_P1;SDS_P2;PMS_P1;PMS_P2;Temp;Humidity;BMP_temperature;BMP_pressure;BME280_temperature;BME280_humidity;BME280_pressure;Samples;Min_cycle;Max_cycle;Signal;HPM_P1;HPM_P2
2021/01/20 00:01:46;;;;;;;2.00;1.90;;;4.70;99.90;;;;;;4865604;29;20779;-75
2021/01/20 00:04:11;;;;;;;2.17;2.00;;;4.50;99.90;;;;;;4867675;29;20428;-74
2021/01/20 00:06:37;;;;;;;1.95;1.85;;;4.50;99.90;;;;;;4827094;29;20429;-75
2021/01/20 00:09:03;;;;;;;2.10;2.00;;;4.50;99.90;;;;;;4906762;29;20455;-74
2021/01/20 00:11:29;;;;;;;2.17;1.90;;;4.50;99.90;;;;;;4852957;29;20464;-76
2021/01/20 00:13:55;;;;;;;2.13;1.92;;;4.50;99.90;;;;;;4879054;29;20410;-75
2021/01/20 00:16:21;;;;;;;3.17;2.10;;;4.50;99.90;;;;;;4838218;29;20463;-76
2021/01/20 00:18:46;;;;;;;2.00;1.90;;;4.50;99.90;;;;;;4871322;28;20502;-76
2021/01/20 00:21:12;;;;;;;2.20;2.00;;;4.60;99.90;;;;;;4874054;28;20408;-75
2021/01/20 00:23:38;;;;;;;1.67;1.57;;;4.40;99.90;;;;;;4864925;29;20424;-76
2021/01/20 00:26:03;;;;;;;2.15;1.95;;;4.40;99.90;;;;;;4865815;28;20420;-77
2021/01/20 00:28:29;;;;;;;2.10;1.90;;;4.40;99.90;;;;;;4858288;29;20417;-76
2021/01/20 00:30:56;;;;;;;2.15;1.95;;;4.40;99.90;;;;;;4914449;29;20406;-77
2021/01/20 00:33:23;;;;;;;2.10;1.90;;;4.40;99.90;;;;;;4867595;28;20418;-77
2021/01/20 00:35:48;;;;;;;2.22;2.03;;;4.40;99.90;;;;;;4862622;29;20423;-77
2021/01/20 00:38:14;;;;;;;2.07;1.97;;;4.30;99.90;;;;;;4905858;28;20419;-76
2021/01/20 00:40:40;;;;;;;2.15;2.03;;;4.30;99.90;;;;;;4847381;28;21159;-75
2021/01/20 00:43:05;;;;;;;2.30;2.10;;;4.30;99.90;;;;;;4892433;28;20765;-77
2021/01/20 00:45:31;;;;;;;2.20;1.90;;;4.30;99.90;;;;;;4920891;28;20424;-76
2021/01/20 00:47:57;;;;;;;1.90;1.80;;;4.30;99.90;;;;;;4868441;29;20407;-76
2021/01/20 00:50:23;;;;;;;1.80;1.70;;;4.30;99.90;;;;;;4865812;28;20965;-77
2021/01/20 00:52:48;;;;;;;1.90;1.70;;;4.20;99.90;;;;;;4864453;28;20441;-76
2021/01/20 00:55:15;;;;;;;2.05;1.95;;;4.20;99.90;;;;;;4858537;28;20974;-76
2021/01/20 00:57:45;;;;;;;1.90;1.80;;;4.20;99.90;;;;;;4876900;28;20430;-76
2021/01/20 01:00:11;;;;;;;2.13;1.93;;;4.30;99.90;;;;;;4848622;29;20413;-75
2021/01/20 01:02:43;;;;;;;2.63;2.10;;;4.10;99.90;;;;;;4909179;28;20406;-76
2021/01/20 01:05:09;;;;;;;2.30;2.10;;;4.20;99.90;;;;;;4888138;29;20776;-75
2021/01/20 01:07:35;;;;;;;2.00;1.80;;;4.10;99.90;;;;;;4850431;28;20421;-74
2021/01/20 01:10:01;;;;;;;2.00;1.90;;;4.00;99.90;;;;;;4849082;29;20775;-76
2021/01/20 01:12:50;;;;;;;2.45;1.60;;;4.00;99.90;;;;;;4867394;28;20442;-75
2021/01/20 01:15:17;;;;;;;1.73;1.63;;;4.00;99.90;;;;;;4873684;28;20415;-75
2021/01/20 01:17:43;;;;;;;1.90;1.75;;;3.90;99.90;;;;;;4857460;28;20414;-74
2021/01/20 01:20:09;;;;;;;1.77;1.67;;;3.90;99.90;;;;;;4916692;28;20849;-75
2021/01/20 01:22:35;;;;;;;2.20;2.00;;;3.90;99.90;;;;;;4850487;29;20411;-76
2021/01/20 01:25:01;;;;;;;2.00;1.90;;;3.80;99.90;;;;;;4847519;28;20438;-75
2021/01/20 01:27:27;;;;;;;1.77;1.67;;;3.80;99.90;;;;;;4851580;28;20414;-75
2021/01/20 01:29:59;;;;;;;2.03;1.88;;;3.80;99.90;;;;;;4853315;28;20412;-75
2021/01/20 01:32:33;;;;;;;1.65;1.55;;;3.70;99.90;;;;;;4849097;29;20424;-75
2021/01/20 01:35:01;;;;;;;2.63;1.95;;;3.70;99.90;;;;;;4831540;29;20426;-75
2021/01/20 01:37:27;;;;;;;2.10;1.88;;;3.60;99.90;;;;;;4874564;28;20420;-75
2021/01/20 01:40:08;;;;;;;1.83;1.73;;;3.60;99.90;;;;;;4890239;28;20411;-74
2021/01/20 01:42:51;;;;;;;1.85;1.73;;;3.50;99.90;;;;;;4896376;28;20509;-75
2021/01/20 01:45:17;;;;;;;2.08;1.98;;;3.50;99.90;;;;;;4869091;28;20496;-73
2021/01/20 01:47:44;;;;;;;1.70;1.60;;;3.50;99.90;;;;;;4880915;29;20424;-75
2021/01/20 01:50:11;;;;;;;1.73;1.63;;;3.50;99.90;;;;;;4850839;29;20426;-75
2021/01/20 01:52:37;;;;;;;2.58;1.65;;;3.50;99.90;;;;;;4873197;28;20474;-75
2021/01/20 01:55:22;;;;;;;1.60;1.50;;;3.50;99.90;;;;;;4868212;28;22449;-75
2021/01/20 01:58:08;;;;;;;1.77;1.67;;;3.60;99.90;;;;;;4858034;29;20399;-75
2021/01/20 02:00:36;;;;;;;1.83;1.73;;;3.70;99.90;;;;;;4853743;29;20401;-75
2021/01/20 02:03:14;;;;;;;1.70;1.60;;;3.60;99.90;;;;;;4895855;28;20894;-74
2021/01/20 02:05:41;;;;;;;1.90;1.70;;;3.70;99.90;;;;;;4844902;28;20423;-74
2021/01/20 02:08:07;;;;;;;1.63;1.52;;;3.70;99.90;;;;;;4843041;28;20415;-75
2021/01/20 02:10:41;;;;;;;1.60;1.50;;;3.80;99.90;;;;;;4847195;28;20415;-74
2021/01/20 02:13:28;;;;;;;1.63;1.53;;;3.90;99.90;;;;;;4884242;28;20453;-74
2021/01/20 02:16:23;;;;;;;1.63;1.52;;;3.90;99.90;;;;;;4919281;28;20486;-75
2021/01/20 02:18:54;;;;;;;1.70;1.60;;;3.90;99.90;;;;;;4842527;29;20936;-74
2021/01/20 02:21:34;;;;;;;1.60;1.50;;;4.00;99.90;;;;;;4846185;29;20420;-74
2021/01/20 02:24:19;;;;;;;1.50;1.40;;;4.00;99.90;;;;;;4851755;28;21139;-75
2021/01/20 02:27:28;;;;;;;1.53;1.43;;;4.10;99.90;;;;;;4906101;28;20414;-75
2021/01/20 02:30:05;;;;;;;2.10;1.90;;;4.10;99.90;;;;;;4871677;28;20503;-75
2021/01/20 02:32:46;;;;;;;1.40;1.30;;;4.00;99.90;;;;;;4877479;28;20421;-75
2021/01/20 02:35:13;;;;;;;2.40;1.65;;;4.10;99.90;;;;;;4857634;28;20426;-75
2021/01/20 02:37:39;;;;;;;1.95;1.85;;;4.10;99.90;;;;;;4858587;29;20404;-75
2021/01/20 02:40:23;;;;;;;4.20;2.00;;;4.20;99.90;;;;;;4886644;28;20487;-74
2021/01/20 02:43:12;;;;;;;1.65;1.55;;;4.20;99.90;;;;;;4847915;29;20491;-75
2021/01/20 02:45:57;;;;;;;1.85;1.60;;;4.30;99.90;;;;;;4847902;29;20511;-75
2021/01/20 02:48:22;;;;;;;1.42;1.38;;;4.20;99.90;;;;;;4851991;28;20938;-75
2021/01/20 02:50:49;;;;;;;1.70;1.60;;;4.20;99.90;;;;;;4842087;28;21122;-75
2021/01/20 02:53:21;;;;;;;1.73;1.63;;;4.40;99.90;;;;;;4844427;28;21942;-75
2021/01/20 02:56:06;;;;;;;1.60;1.50;;;4.30;99.90;;;;;;4846901;29;20427;-75
2021/01/20 02:58:51;;;;;;;2.05;1.80;;;4.30;99.90;;;;;;4898520;28;20501;-74
2021/01/20 03:01:35;;;;;;;1.77;1.67;;;4.20;99.90;;;;;;4894439;29;20931;-75
2021/01/20 03:04:01;;;;;;;1.92;1.73;;;4.20;99.90;;;;;;4895177;29;20490;-75
2021/01/20 03:06:27;;;;;;;1.50;1.40;;;4.20;99.90;;;;;;4852589;29;20445;-74
2021/01/20 03:08:53;;;;;;;2.05;1.77;;;4.20;99.90;;;;;;4877203;28;20415;-74
2021/01/20 03:11:19;;;;;;;1.65;1.55;;;4.20;99.90;;;;;;4891591;28;20927;-74
2021/01/20 03:13:45;;;;;;;2.10;1.90;;;4.20;99.90;;;;;;4875609;29;20433;-76
2021/01/20 03:16:11;;;;;;;1.80;1.70;;;4.20;99.90;;;;;;4892186;28;20454;-75
2021/01/20 03:18:36;;;;;;;2.00;1.60;;;4.20;99.90;;;;;;4860258;28;20424;-75
2021/01/20 03:21:02;;;;;;;1.70;1.60;;;4.20;99.90;;;;;;4867765;28;20468;-75
2021/01/20 03:23:28;;;;;;;1.80;1.70;;;4.20;99.90;;;;;;4866524;29;20429;-75
2021/01/20 03:25:56;;;;;;;1.67;1.57;;;4.20;99.90;;;;;;4881702;28;20427;-75
2021/01/20 03:28:23;;;;;;;1.70;1.60;;;4.20;99.90;;;;;;4881496;28;20420;-75
2021/01/20 03:30:48;;;;;;;2.00;1.80;;;4.20;99.90;;;;;;4844507;29;20423;-75
2021/01/20 03:33:14;;;;;;;2.50;1.70;;;4.20;99.90;;;;;;4888128;28;20514;-75
2021/01/20 03:35:40;;;;;;;1.73;1.60;;;4.20;99.90;;;;;;4862613;29;20460;-75
2021/01/20 03:38:05;;;;;;;1.95;1.75;;;4.20;99.90;;;;;;4887697;29;20523;-75
2021/01/20 03:40:31;;;;;;;4.00;1.75;;;4.20;99.90;;;;;;4879464;29;20945;-75
2021/01/20 03:42:57;;;;;;;1.67;1.57;;;4.20;99.90;;;;;;4866286;28;20406;-75
2021/01/20 03:45:22;;;;;;;2.03;1.92;;;4.20;99.90;;;;;;4876863;29;20439;-75
2021/01/20 03:47:48;;;;;;;1.67;1.57;;;4.20;99.90;;;;;;4867033;29;20446;-75
2021/01/20 03:50:13;;;;;;;1.73;1.63;;;4.10;99.90;;;;;;4867455;28;20419;-76
2021/01/20 03:52:39;;;;;;;1.55;1.45;;;4.20;99.90;;;;;;4838626;28;20407;-75
2021/01/20 03:55:05;;;;;;;1.50;1.40;;;4.20;99.90;;;;;;4874683;28;20776;-75
2021/01/20 03:57:31;;;;;;;1.80;1.70;;;4.20;99.90;;;;;;4889624;29;20443;-75
2021/01/20 03:59:56;;;;;;;1.70;1.60;;;4.20;99.90;;;;;;4834891;29;20416;-75
2021/01/20 04:02:22;;;;;;;2.10;1.90;;;4.20;99.90;;;;;;4885515;28;20425;-75
2021/01/20 04:04:58;;;;;;;2.03;1.77;;;4.20;99.90;;;;;;4851965;28;20544;-75
2021/01/20 04:07:23;;;;;;;1.50;1.40;;;4.20;99.90;;;;;;4847293;28;20972;-75
2021/01/20 04:09:49;;;;;;;1.60;1.50;;;4.20;99.90;;;;;;4850107;29;20414;-75
2021/01/20 04:12:15;;;;;;;2.00;1.80;;;4.10;99.90;;;;;;4851357;28;20420;-75
2021/01/20 04:14:40;;;;;;;1.60;1.50;;;4.20;99.90;;;;;;4856480;28;20906;-76
2021/01/20 04:17:06;;;;;;;1.80;1.67;;;4.20;99.90;;;;;;4900238;28;20423;-75
2021/01/20 04:19:32;;;;;;;1.60;1.50;;;4.20;99.90;;;;;;4862066;29;20475;-76
2021/01/20 04:21:57;;;;;;;1.85;1.45;;;4.20;99.90;;;;;;4852088;29;20411;-75
2021/01/20 04:24:23;;;;;;;1.57;1.47;;;4.10;99.90;;;;;;4901287;28;20518;-76
2021/01/20 04:26:48;;;;;;;1.50;1.40;;;4.10;99.90;;;;;;4842378;28;20858;-76
2021/01/20 04:29:16;;;;;;;1.60;1.50;;;4.10;99.90;;;;;;4930378;28;20413;-75
2021/01/20 04:31:42;;;;;;;3.00;1.50;;;4.10;99.90;;;;;;4873021;28;20423;-75
2021/01/20 04:34:08;;;;;;;1.90;1.40;;;4.10;99.90;;;;;;4944817;28;20550;-76
2021/01/20 04:36:33;;;;;;;1.40;1.30;;;4.10;99.90;;;;;;4877297;29;20419;-75
2021/01/20 04:38:59;;;;;;;2.10;1.40;;;4.20;99.90;;;;;;4933817;28;21020;-76
2021/01/20 04:41:26;;;;;;;1.65;1.55;;;4.10;99.90;;;;;;4884413;29;20391;-76
2021/01/20 04:43:51;;;;;;;1.40;1.30;;;4.10;99.90;;;;;;4851358;29;20434;-75
2021/01/20 04:46:17;;;;;;;1.70;1.60;;;4.10;99.90;;;;;;4861460;28;20602;-76
2021/01/20 04:48:43;;;;;;;1.42;1.33;;;4.10;99.90;;;;;;4878843;28;20431;-76
2021/01/20 04:51:09;;;;;;;1.50;1.20;;;4.00;99.90;;;;;;4887204;28;20399;-77
2021/01/20 04:53:34;;;;;;;1.70;1.40;;;4.10;99.90;;;;;;4894198;28;20423;-76
2021/01/20 04:56:04;;;;;;;2.72;1.42;;;4.10;99.90;;;;;;4874856;28;20988;-76
2021/01/20 04:58:30;;;;;;;1.40;1.30;;;4.10;99.90;;;;;;4903731;28;20483;-76
2021/01/20 05:00:55;;;;;;;1.20;1.10;;;4.00;99.90;;;;;;4903296;28;20512;-75
2021/01/20 05:03:21;;;;;;;1.50;1.40;;;4.10;99.90;;;;;;4897887;28;20405;-75
2021/01/20 05:05:47;;;;;;;1.97;1.30;;;4.10;99.90;;;;;;4870163;28;20418;-76
2021/01/20 05:08:12;;;;;;;1.20;1.10;;;4.10;99.90;;;;;;4867868;28;20407;-75
2021/01/20 05:10:38;;;;;;;1.60;1.50;;;4.10;99.90;;;;;;4886437;28;21158;-75
2021/01/20 05:13:04;;;;;;;1.17;1.13;;;4.10;99.90;;;;;;4925156;29;20501;-75
2021/01/20 05:15:31;;;;;;;1.17;1.10;;;4.20;99.90;;;;;;4871614;28;20854;-75
2021/01/20 05:17:58;;;;;;;1.65;1.33;;;4.10;99.90;;;;;;4868778;28;20442;-75
2021/01/20 05:20:34;;;;;;;1.25;1.15;;;4.10;99.90;;;;;;4870241;29;20418;-76
2021/01/20 05:23:00;;;;;;;1.35;1.25;;;4.10;99.90;;;;;;4867858;28;21081;-77
2021/01/20 05:25:30;;;;;;;1.23;1.13;;;4.00;99.90;;;;;;4842912;29;20534;-76
2021/01/20 05:27:56;;;;;;;1.10;1.10;;;4.00;99.90;;;;;;4875004;28;20439;-76
2021/01/20 05:30:22;;;;;;;1.33;1.17;;;4.00;99.90;;;;;;4876495;28;20409;-76
2021/01/20 05:32:55;;;;;;;2.10;1.30;;;4.00;99.90;;;;;;4863473;29;20440;-76
2021/01/20 05:35:20;;;;;;;1.15;1.08;;;4.00;99.90;;;;;;4902898;28;20780;-76
2021/01/20 05:37:47;;;;;;;1.50;0.97;;;3.90;99.90;;;;;;4877462;28;20409;-80
2021/01/20 05:40:14;;;;;;;1.30;1.20;;;3.90;99.90;;;;;;4879239;28;20421;-79
2021/01/20 05:42:49;;;;;;;1.10;1.10;;;3.90;99.90;;;;;;4908682;29;20650;-79
2021/01/20 05:45:15;;;;;;;1.65;1.30;;;3.90;99.90;;;;;;4849841;29;20418;-79
2021/01/20 05:47:59;;;;;;;1.45;1.35;;;3.90;99.90;;;;;;4852212;28;20409;-80
2021/01/20 05:50:24;;;;;;;1.45;1.35;;;3.80;99.90;;;;;;4863727;28;20400;-78
2021/01/20 05:53:03;;;;;;;1.43;1.33;;;3.80;99.90;;;;;;4854952;28;20413;-79
2021/01/20 05:55:29;;;;;;;1.52;1.30;;;3.80;99.90;;;;;;4869181;28;20796;-79
2021/01/20 05:57:54;;;;;;;1.73;1.40;;;3.80;99.90;;;;;;4853853;28;20405;-78
2021/01/20 06:00:20;;;;;;;1.50;1.40;;;3.70;99.90;;;;;;4854696;28;20405;-78
2021/01/20 06:02:46;;;;;;;1.50;1.40;;;3.60;99.90;;;;;;4887127;28;20405;-78
2021/01/20 06:05:12;;;;;;;1.70;1.60;;;3.60;99.90;;;;;;4853729;28;20397;-78
2021/01/20 06:07:38;;;;;;;1.70;1.25;;;3.50;99.90;;;;;;4855312;28;20488;-78
2021/01/20 06:10:05;;;;;;;1.77;1.40;;;3.50;99.90;;;;;;4842889;28;20442;-78
2021/01/20 06:12:30;;;;;;;2.67;1.40;;;3.50;99.90;;;;;;4880692;29;20427;-79
2021/01/20 06:14:57;;;;;;;1.75;1.30;;;3.40;99.90;;;;;;4822250;29;20411;-78
2021/01/20 06:17:30;;;;;;;1.27;1.17;;;3.40;99.90;;;;;;4860661;28;20428;-79
2021/01/20 06:20:01;;;;;;;1.30;1.20;;;3.30;99.90;;;;;;4844032;28;20424;-78
2021/01/20 06:22:27;;;;;;;1.33;1.13;;;3.20;99.90;;;;;;4857320;28;20448;-78
2021/01/20 06:25:08;;;;;;;1.58;1.48;;;3.20;99.90;;;;;;4836878;29;20512;-78
2021/01/20 06:27:39;;;;;;;1.30;1.20;;;3.20;99.90;;;;;;4851225;29;20415;-78
2021/01/20 06:30:14;;;;;;;1.10;1.00;;;3.20;99.90;;;;;;4910717;28;20415;-78
2021/01/20 06:32:46;;;;;;;1.35;1.25;;;3.10;99.90;;;;;;4844407;29;20495;-78
2021/01/20 06:35:12;;;;;;;1.23;1.15;;;3.10;99.90;;;;;;4889849;28;20989;-80
2021/01/20 06:37:42;;;;;;;1.38;1.27;;;3.00;99.90;;;;;;4838703;29;20491;-79
2021/01/20 06:40:22;;;;;;;1.30;1.20;;;2.90;99.90;;;;;;4865413;29;20466;-78
2021/01/20 06:42:51;;;;;;;1.42;1.33;;;2.90;99.90;;;;;;4894197;28;20406;-78
2021/01/20 06:45:17;;;;;;;1.10;1.10;;;2.90;99.90;;;;;;4868093;28;20495;-78
2021/01/20 06:47:58;;;;;;;1.50;1.40;;;2.80;99.90;;;;;;4854592;28;20469;-77
2021/01/20 06:50:27;;;;;;;3.85;2.50;;;2.70;99.90;;;;;;4850746;29;20993;-78
2021/01/20 06:53:06;;;;;;;5.47;3.78;;;2.70;99.90;;;;;;4841218;29;20913;-77
2021/01/20 06:55:39;;;;;;;5.00;3.43;;;2.70;99.90;;;;;;4865084;28;20410;-78
2021/01/20 06:58:20;;;;;;;2.80;2.50;;;2.70;99.90;;;;;;4862504;28;20470;-78
2021/01/20 07:00:58;;;;;;;5.85;3.97;;;2.70;99.90;;;;;;4908866;28;20393;-78
2021/01/20 07:03:43;;;;;;;2.47;2.28;;;2.70;99.90;;;;;;4922020;29;20479;-78
2021/01/20 07:06:34;;;;;;;2.10;1.83;;;2.60;99.90;;;;;;4848662;29;20427;-78
2021/01/20 07:09:11;;;;;;;1.50;1.40;;;2.60;99.90;;;;;;4879884;28;20408;-78
2021/01/20 07:11:55;;;;;;;1.55;1.42;;;2.60;99.90;;;;;;4827525;29;20414;-78
2021/01/20 07:14:27;;;;;;;1.30;1.20;;;2.70;99.90;;;;;;4870843;29;20440;-78
2021/01/20 07:16:54;;;;;;;1.40;1.30;;;2.70;99.90;;;;;;4927771;29;20909;-78
2021/01/20 07:19:21;;;;;;;1.77;1.42;;;2.70;99.90;;;;;;4868626;28;20476;-78
2021/01/20 07:21:47;;;;;;;1.50;1.40;;;2.80;99.90;;;;;;4835776;29;20433;-80
2021/01/20 07:24:12;;;;;;;1.40;1.30;;;2.80;99.90;;;;;;4856032;29;20414;-77
2021/01/20 07:26:38;;;;;;;1.73;1.53;;;2.90;99.90;;;;;;4862457;29;20933;-78
2021/01/20 07:29:16;;;;;;;1.10;1.10;;;3.00;99.90;;;;;;4838979;29;20419;-79
2021/01/20 07:31:46;;;;;;;1.83;1.73;;;3.00;99.90;;;;;;4861624;29;20941;-78
2021/01/20 07:34:12;;;;;;;1.63;1.52;;;3.00;99.90;;;;;;4863975;28;20438;-78
2021/01/20 07:36:37;;;;;;;1.50;1.40;;;3.10;99.90;;;;;;4846423;29;20544;-78
2021/01/20 07:39:04;;;;;;;2.30;2.10;;;3.10;99.90;;;;;;4870138;29;20797;-78
2021/01/20 07:41:30;;;;;;;2.80;2.20;;;3.10;99.90;;;;;;4872982;29;21071;-78
2021/01/20 07:44:06;;;;;;;4.00;3.58;;;3.10;99.90;;;;;;4878831;28;20400;-77
2021/01/20 07:46:31;;;;;;;2.00;1.70;;;3.20;99.90;;;;;;4872024;29;20417;-78
2021/01/20 07:48:57;;;;;;;1.97;1.83;;;3.20;99.90;;;;;;4859874;29;20753;-77
2021/01/20 07:51:23;;;;;;;2.45;2.25;;;3.20;99.90;;;;;;4859821;28;20436;-78
2021/01/20 07:53:56;;;;;;;7.93;6.70;;;3.20;99.90;;;;;;4840046;29;20406;-78
2021/01/20 07:56:22;;;;;;;5.22;4.38;;;3.30;99.90;;;;;;4876462;29;20417;-78
2021/01/20 07:58:48;;;;;;;2.38;1.40;;;3.40;99.90;;;;;;4855378;29;21080;-78
2021/01/20 08:01:26;;;;;;;1.55;1.45;;;3.40;99.90;;;;;;4920149;28;20477;-77
2021/01/20 08:03:52;;;;;;;2.30;2.10;;;3.40;99.90;;;;;;4859211;28;20417;-78
2021/01/20 08:06:18;;;;;;;2.53;1.95;;;3.50;99.90;;;;;;4861828;28;20424;-79
2021/01/20 08:08:53;;;;;;;4.40;2.90;;;3.60;99.90;;;;;;4918378;28;20405;-79
2021/01/20 08:11:19;;;;;;;2.17;1.65;;;3.50;99.90;;;;;;4838874;28;20461;-79
2021/01/20 08:13:45;;;;;;;2.72;2.08;;;3.60;99.90;;;;;;4852042;29;20439;-79
2021/01/20 08:16:11;;;;;;;3.88;2.08;;;3.60;99.90;;;;;;4847089;29;20415;-78
2021/01/20 08:18:36;;;;;;;2.30;2.03;;;3.70;99.90;;;;;;4877986;28;20502;-78
2021/01/20 08:21:05;;;;;;;2.60;2.10;;;3.80;99.90;;;;;;4834308;29;20418;-78
2021/01/20 08:23:51;;;;;;;4.93;2.53;;;3.90;99.90;;;;;;4843021;29;20422;-78
2021/01/20 08:26:21;;;;;;;2.17;1.70;;;3.90;99.90;;;;;;4871540;29;20405;-80
2021/01/20 08:29:07;;;;;;;2.25;1.80;;;4.00;99.90;;;;;;4871956;29;20408;-80
2021/01/20 08:31:33;;;;;;;1.65;1.42;;;4.00;99.90;;;;;;4871335;29;20413;-80
2021/01/20 08:34:23;;;;;;;2.00;1.77;;;4.20;99.90;;;;;;4865450;29;20415;-78
2021/01/20 08:37:04;;;;;;;2.17;1.85;;;4.30;99.90;;;;;;4868845;29;20859;-79
2021/01/20 08:39:31;;;;;;;2.95;1.65;;;4.40;99.90;;;;;;4892514;28;20498;-77
2021/01/20 08:42:15;;;;;;;1.85;1.70;;;4.50;99.90;;;;;;4852736;28;21103;-77
2021/01/20 08:45:12;;;;;;;2.13;1.95;;;4.60;99.90;;;;;;4906212;29;20490;-78
2021/01/20 08:47:57;;;;;;;2.92;2.55;;;4.80;99.90;;;;;;4865799;29;20427;-78
2021/01/20 08:50:40;;;;;;;14.23;6.97;;;4.80;99.90;;;;;;4890041;29;20411;-79
2021/01/20 08:53:07;;;;;;;10.80;6.27;;;4.90;99.90;;;;;;4906584;28;20467;-79
2021/01/20 08:55:38;;;;;;;5.65;3.22;;;4.90;99.90;;;;;;4915480;28;20484;-79
2021/01/20 08:58:24;;;;;;;6.50;4.67;;;5.00;99.90;;;;;;4853097;28;20430;-79
2021/01/20 09:00:52;;;;;;;7.60;5.50;;;5.00;99.90;;;;;;4868586;29;20413;-79
2021/01/20 09:03:25;;;;;;;4.60;2.67;;;5.30;99.90;;;;;;4837817;28;20485;-78
2021/01/20 09:05:51;;;;;;;3.38;2.47;;;5.20;99.90;;;;;;4864732;28;20441;-79
2021/01/20 09:08:18;;;;;;;3.55;2.45;;;5.30;99.90;;;;;;4857427;29;20491;-79
2021/01/20 09:10:44;;;;;;;4.53;3.60;;;5.30;99.90;;;;;;4854367;29;20425;-79
2021/01/20 09:13:11;;;;;;;5.88;4.30;;;5.40;99.90;;;;;;4854679;28;20776;-79
2021/01/20 09:15:37;;;;;;;6.32;3.75;;;5.50;99.90;;;;;;4828780;29;20403;-81
2021/01/20 09:18:06;;;;;;;4.20;3.10;;;5.50;99.90;;;;;;4851316;29;20417;-81
2021/01/20 09:20:33;;;;;;;3.15;2.42;;;5.60;99.90;;;;;;4849232;28;20465;-82
2021/01/20 09:22:58;;;;;;;2.10;1.90;;;5.60;99.90;;;;;;4854160;29;20418;-81
2021/01/20 09:25:24;;;;;;;1.03;1.03;;;5.70;99.90;;;;;;4856520;29;20414;-81
2021/01/20 09:27:53;;;;;;;1.73;1.40;;;5.80;99.90;;;;;;4839906;29;20460;-81
2021/01/20 09:30:20;;;;;;;1.60;1.35;;;5.80;99.90;;;;;;4866144;29;20412;-81
2021/01/20 09:32:46;;;;;;;1.25;1.15;;;6.00;99.90;;;;;;4859485;29;21033;-81
2021/01/20 09:35:13;;;;;;;1.00;1.00;;;6.20;99.90;;;;;;4856170;29;20422;-78
2021/01/20 09:37:42;;;;;;;1.30;1.20;;;6.20;99.90;;;;;;4854116;29;20502;-79
2021/01/20 09:40:09;;;;;;;2.00;1.80;;;6.40;99.90;;;;;;4845618;29;20416;-79
2021/01/20 09:42:39;;;;;;;3.00;2.63;;;6.50;99.90;;;;;;4859699;29;20422;-79
2021/01/20 09:45:07;;;;;;;2.22;1.90;;;6.60;99.90;;;;;;4855142;28;20435;-79
2021/01/20 09:47:35;;;;;;;2.28;1.95;;;6.70;99.90;;;;;;4853745;28;20413;-79
2021/01/20 09:50:02;;;;;;;2.08;1.52;;;6.80;99.90;;;;;;4924418;28;20423;-79
2021/01/20 09:55:27;;;;;;;1.50;1.40;;;7.00;99.90;;;;;;5327644;23;20421;-80
2021/01/20 09:57:53;;;;;;;1.73;1.38;;;7.00;99.90;;;;;;4860752;29;20466;-79
2021/01/20 10:00:22;;;;;;;1.77;1.67;;;7.30;99.90;;;;;;4880284;29;20397;-79
2021/01/20 10:02:48;;;;;;;2.22;2.03;;;7.30;99.90;;;;;;4878787;29;20408;-79
2021/01/20 10:05:14;;;;;;;3.15;2.47;;;7.40;99.90;;;;;;4864436;29;20876;-79
2021/01/20 10:07:40;;;;;;;1.13;1.10;;;7.30;99.90;;;;;;4877644;29;20523;-80
2021/01/20 10:10:10;;;;;;;3.20;1.50;;;7.40;99.90;;;;;;4879347;29;20437;-80
2021/01/20 10:12:42;;;;;;;2.07;1.70;;;7.40;99.90;;;;;;4868859;29;20935;-79
2021/01/20 10:15:09;;;;;;;1.50;1.20;;;7.40;99.90;;;;;;4883004;29;20399;-79
2021/01/20 10:17:35;;;;;;;1.73;1.42;;;7.30;99.90;;;;;;4882011;29;20463;-80
2021/01/20 10:20:04;;;;;;;2.10;1.70;;;7.40;99.90;;;;;;4850048;29;26494;-79
2021/01/20 10:22:30;;;;;;;1.90;1.70;;;7.50;99.90;;;;;;4881357;29;20407;-80
2021/01/20 10:24:56;;;;;;;1.50;1.40;;;7.40;99.90;;;;;;4882986;29;20406;-80
2021/01/20 10:27:23;;;;;;;2.47;2.20;;;7.60;99.90;;;;;;4882084;29;20414;-79
2021/01/20 10:29:54;;;;;;;1.73;1.63;;;7.70;99.90;;;;;;4888660;29;20829;-82
2021/01/20 10:32:24;;;;;;;1.40;1.30;;;7.70;99.90;;;;;;4878794;29;20417;-80
2021/01/20 10:34:50;;;;;;;1.50;1.40;;;7.60;99.90;;;;;;4894985;29;20406;-80
2021/01/20 10:37:16;;;;;;;1.50;1.40;;;7.70;99.90;;;;;;4894048;29;20443;-80
2021/01/20 10:39:42;;;;;;;1.50;1.40;;;7.80;99.90;;;;;;4892691;29;20857;-79
2021/01/20 10:42:07;;;;;;;1.55;1.45;;;7.80;99.90;;;;;;4894066;29;20924;-79
2021/01/20 10:44:33;;;;;;;1.20;1.20;;;8.00;99.90;;;;;;4901756;29;20460;-79
2021/01/20 10:46:59;;;;;;;1.23;1.20;;;8.00;99.90;;;;;;4874405;29;20409;-80
2021/01/20 10:49:26;;;;;;;1.45;1.35;;;8.10;99.90;;;;;;4905688;29;20889;-80
2021/01/20 10:51:51;;;;;;;1.15;1.15;;;8.10;99.90;;;;;;4863816;29;20989;-79
2021/01/20 10:54:17;;;;;;;1.27;1.17;;;8.20;99.90;;;;;;4872718;29;20486;-79
2021/01/20 10:56:43;;;;;;;1.67;1.23;;;8.10;99.90;;;;;;4865900;29;20922;-79
2021/01/20 10:59:08;;;;;;;1.93;1.37;;;8.20;99.90;;;;;;4875200;29;20429;-80
2021/01/20 11:01:34;;;;;;;1.20;1.15;;;8.10;99.90;;;;;;4876075;29;20412;-80
2021/01/20 11:04:00;;;;;;;1.00;1.00;;;8.30;99.90;;;;;;4860407;29;20408;-79
2021/01/20 11:06:26;;;;;;;1.63;1.52;;;8.30;99.90;;;;;;4866794;29;20979;-80
2021/01/20 11:08:51;;;;;;;1.40;1.30;;;8.30;99.90;;;;;;4881650;29;20412;-80
2021/01/20 11:11:18;;;;;;;1.20;1.13;;;8.40;99.90;;;;;;4882034;29;21021;-80
2021/01/20 11:13:44;;;;;;;1.30;1.00;;;8.30;99.90;;;;;;4882344;29;20417;-80
2021/01/20 11:16:11;;;;;;;1.10;1.10;;;8.50;99.90;;;;;;4888571;29;20427;-80
2021/01/20 11:18:37;;;;;;;1.60;1.20;;;8.60;99.90;;;;;;4851750;29;20837;-80
2021/01/20 11:21:03;;;;;;;1.27;1.17;;;8.80;99.90;;;;;;4858053;29;20475;-79
2021/01/20 11:23:35;;;;;;;1.00;1.00;;;9.00;99.90;;;;;;4857153;29;20418;-80
2021/01/20 11:26:02;;;;;;;1.10;1.10;;;9.10;99.90;;;;;;4865277;29;20414;-80
2021/01/20 11:28:27;;;;;;;1.55;1.17;;;9.20;99.90;;;;;;4879445;29;20418;-80
2021/01/20 11:30:55;;;;;;;1.50;1.40;;;9.30;99.90;;;;;;4878710;29;21163;-79
2021/01/20 11:33:20;;;;;;;1.08;1.00;;;9.30;99.90;;;;;;4877592;29;20450;-79
2021/01/20 11:35:46;;;;;;;1.47;1.20;;;9.30;99.90;;;;;;4874297;29;20428;-79
2021/01/20 11:38:12;;;;;;;1.42;1.33;;;9.40;99.90;;;;;;4859773;29;20458;-80
2021/01/20 11:40:37;;;;;;;0.90;0.90;;;9.60;99.90;;;;;;4894025;29;20410;-79
2021/01/20 11:43:03;;;;;;;1.38;1.10;;;9.60;99.90;;;;;;4868061;29;20443;-79
2021/01/20 11:45:37;;;;;;;1.58;1.48;;;9.60;99.90;;;;;;4887407;29;20426;-80
2021/01/20 11:48:04;;;;;;;1.42;1.25;;;9.50;99.90;;;;;;4874245;29;20477;-79
2021/01/20 11:50:30;;;;;;;1.60;1.33;;;9.50;99.90;;;;;;4892372;29;20405;-80
2021/01/20 11:52:55;;;;;;;1.45;1.17;;;9.60;99.90;;;;;;4906604;29;20417;-80
2021/01/20 11:55:22;;;;;;;2.53;1.80;;;9.80;99.90;;;;;;4893805;29;20451;-80
2021/01/20 11:57:48;;;;;;;1.25;1.10;;;9.90;99.90;;;;;;4878356;29;20419;-80
2021/01/20 12:00:14;;;;;;;0.90;0.90;;;10.00;99.90;;;;;;4890764;29;20401;-80
2021/01/20 12:02:40;;;;;;;1.23;1.13;;;10.00;99.90;;;;;;4887374;29;20411;-79
2021/01/20 12:05:11;;;;;;;1.37;1.17;;;10.10;99.90;;;;;;4893073;29;20406;-79
2021/01/20 12:07:37;;;;;;;2.10;1.88;;;10.20;99.90;;;;;;4877057;29;20416;-79
2021/01/20 12:10:04;;;;;;;0.90;0.90;;;10.20;99.90;;;;;;4890387;29;20492;-80
2021/01/20 12:12:29;;;;;;;1.00;1.00;;;10.30;99.90;;;;;;4900719;29;20403;-79
2021/01/20 12:14:55;;;;;;;1.00;1.00;;;10.40;99.90;;;;;;4892880;29;20777;-79
2021/01/20 12:17:21;;;;;;;1.08;0.98;;;10.30;99.90;;;;;;4899094;29;20418;-80
2021/01/20 12:19:46;;;;;;;0.93;0.93;;;10.40;99.90;;;;;;4908404;29;20411;-79
2021/01/20 12:22:12;;;;;;;1.27;1.08;;;10.30;99.90;;;;;;4892072;29;20415;-79
2021/01/20 12:24:38;;;;;;;0.90;0.90;;;10.30;99.90;;;;;;4873792;29;20496;-80
2021/01/20 12:27:03;;;;;;;0.90;0.90;;;10.40;99.90;;;;;;4867195;29;21163;-80
2021/01/20 12:29:29;;;;;;;1.03;1.00;;;10.50;99.90;;;;;;4897786;29;20935;-79
2021/01/20 12:31:55;;;;;;;1.55;0.90;;;10.70;99.90;;;;;;4888009;29;20412;-80
2021/01/20 12:34:20;;;;;;;1.20;1.00;;;10.60;99.90;;;;;;4876546;29;20404;-80
2021/01/20 12:36:46;;;;;;;1.00;1.00;;;10.60;99.90;;;;;;4892251;29;20426;-79
2021/01/20 12:39:12;;;;;;;0.90;0.90;;;10.60;99.90;;;;;;4875039;29;20774;-79
2021/01/20 12:41:38;;;;;;;0.90;0.90;;;10.60;99.90;;;;;;4892320;29;20426;-79
2021/01/20 12:44:04;;;;;;;1.30;1.20;;;10.60;99.90;;;;;;4876455;29;20721;-79
2021/01/20 12:46:30;;;;;;;1.00;1.00;;;10.60;99.90;;;;;;4891681;29;20422;-78
2021/01/20 12:48:55;;;;;;;1.20;1.10;;;10.50;99.90;;;;;;4906060;29;20439;-78
2021/01/20 12:51:21;;;;;;;1.00;1.00;;;10.60;99.90;;;;;;4893972;29;20404;-80
2021/01/20 12:53:47;;;;;;;1.70;1.10;;;10.50;99.90;;;;;;4891755;29;20426;-80
2021/01/20 12:56:12;;;;;;;0.97;0.93;;;10.60;99.90;;;;;;4891652;29;20491;-79
2021/01/20 12:58:38;;;;;;;0.80;0.80;;;10.50;99.90;;;;;;4893180;29;20403;-80
2021/01/20 13:01:04;;;;;;;1.33;1.00;;;10.60;99.90;;;;;;4875862;29;20403;-82
2021/01/20 13:03:31;;;;;;;1.33;1.20;;;10.50;99.90;;;;;;4891959;29;20486;-82
2021/01/20 13:05:57;;;;;;;1.05;0.95;;;10.40;99.90;;;;;;4874754;29;20443;-81
2021/01/20 13:08:22;;;;;;;0.93;0.93;;;10.40;99.90;;;;;;4890742;29;20651;-79